sensor_id;sensor_type;location;lat;lon;timestamp;P1;durP1;ratioP1;P2;durP2;ratioP2
25351;SDS011;13304;48.464;8.712;2023-07-20T00:01:27;7.68;;;2.80;;
25351;SDS011;13304;48.464;8.712;2023-07-20T00:03:53;5.35;;;2.95;;
25351;SDS011;13304;48.464;8.712;2023-07-20T00:06:22;5.90;;;2.53;;
25351;SDS011;13304;48.464;8.712;2023-07-20T00:08:49;5.38;;;2.75;;
25351;SDS011;13304;48.464;8.712;2023-07-20T00:11:14;4.43;;;2.75;;
25351;SDS011;13304;48.464;8.712;2023-07-20T00:13:40;5.80;;;2.42;;
25351;SDS011;13304;48.464;8.712;2023-07-20T00:16:06;5.25;;;2.72;;
25351;SDS011;13304;48.464;8.712;2023-07-20T00:18:32;9.75;;;2.80;;
25351;SDS011;13304;48.464;8.712;2023-07-20T00:20:58;8.55;;;2.72;;
25351;SDS011;13304;48.464;8.712;2023-07-20T00:23:26;4.63;;;2.78;;
25351;SDS011;13304;48.464;8.712;2023-07-20T00:25:52;3.65;;;2.47;;
25351;SDS011;13304;48.464;8.712;2023-07-20T00:28:18;4.53;;;2.50;;
25351;SDS011;13304;48.464;8.712;2023-07-20T00:30:45;6.13;;;2.90;;
25351;SDS011;13304;48.464;8.712;2023-07-20T00:33:10;5.72;;;2.63;;
25351;SDS011;13304;48.464;8.712;2023-07-20T00:35:37;3.45;;;2.45;;
25351;SDS011;13304;48.464;8.712;2023-07-20T00:38:06;8.27;;;2.40;;
25351;SDS011;13304;48.464;8.712;2023-07-20T00:40:38;6.45;;;2.67;;
25351;SDS011;13304;48.464;8.712;2023-07-20T00:43:05;5.07;;;2.75;;
25351;SDS011;13304;48.464;8.712;2023-07-20T00:45:33;4.78;;;2.72;;
25351;SDS011;13304;48.464;8.712;2023-07-20T00:48:02;5.78;;;2.67;;
25351;SDS011;13304;48.464;8.712;2023-07-20T00:50:31;3.92;;;2.47;;
25351;SDS011;13304;48.464;8.712;2023-07-20T00:52:58;7.43;;;2.55;;
25351;SDS011;13304;48.464;8.712;2023-07-20T00:55:24;7.88;;;2.70;;
25351;SDS011;13304;48.464;8.712;2023-07-20T00:57:51;8.20;;;2.67;;
25351;SDS011;13304;48.464;8.712;2023-07-20T01:00:19;5.53;;;2.60;;
25351;SDS011;13304;48.464;8.712;2023-07-20T01:02:45;3.90;;;2.97;;
25351;SDS011;13304;48.464;8.712;2023-07-20T01:05:12;4.55;;;2.55;;
25351;SDS011;13304;48.464;8.712;2023-07-20T01:07:39;4.75;;;2.40;;
25351;SDS011;13304;48.464;8.712;2023-07-20T01:12:58;5.47;;;2.95;;
25351;SDS011;13304;48.464;8.712;2023-07-20T01:15:27;4.57;;;2.70;;
25351;SDS011;13304;48.464;8.712;2023-07-20T01:17:52;3.78;;;2.45;;
25351;SDS011;13304;48.464;8.712;2023-07-20T01:20:19;7.07;;;2.88;;
25351;SDS011;13304;48.464;8.712;2023-07-20T01:25:41;10.30;;;2.60;;
25351;SDS011;13304;48.464;8.712;2023-07-20T01:33:43;5.45;;;2.80;;
25351;SDS011;13304;48.464;8.712;2023-07-20T01:36:11;6.53;;;2.80;;
25351;SDS011;13304;48.464;8.712;2023-07-20T01:38:38;6.63;;;2.55;;
25351;SDS011;13304;48.464;8.712;2023-07-20T01:41:03;4.20;;;2.25;;
25351;SDS011;13304;48.464;8.712;2023-07-20T01:43:30;4.53;;;2.70;;
25351;SDS011;13304;48.464;8.712;2023-07-20T01:45:56;6.25;;;2.63;;
25351;SDS011;13304;48.464;8.712;2023-07-20T01:48:22;5.88;;;2.78;;
25351;SDS011;13304;48.464;8.712;2023-07-20T01:50:48;3.67;;;2.60;;
25351;SDS011;13304;48.464;8.712;2023-07-20T01:53:13;6.40;;;2.83;;
25351;SDS011;13304;48.464;8.712;2023-07-20T01:55:39;4.97;;;2.28;;
25351;SDS011;13304;48.464;8.712;2023-07-20T01:58:05;5.82;;;2.53;;
25351;SDS011;13304;48.464;8.712;2023-07-20T02:00:31;5.28;;;2.65;;
25351;SDS011;13304;48.464;8.712;2023-07-20T02:02:57;6.60;;;2.92;;
25351;SDS011;13304;48.464;8.712;2023-07-20T02:05:23;4.72;;;2.60;;
25351;SDS011;13304;48.464;8.712;2023-07-20T02:07:49;4.53;;;2.53;;
25351;SDS011;13304;48.464;8.712;2023-07-20T02:10:15;3.53;;;2.53;;
25351;SDS011;13304;48.464;8.712;2023-07-20T02:12:41;4.00;;;2.83;;
25351;SDS011;13304;48.464;8.712;2023-07-20T02:15:07;6.57;;;2.80;;
25351;SDS011;13304;48.464;8.712;2023-07-20T02:17:33;5.50;;;3.10;;
25351;SDS011;13304;48.464;8.712;2023-07-20T02:19:59;5.03;;;2.70;;
25351;SDS011;13304;48.464;8.712;2023-07-20T02:22:25;4.72;;;2.40;;
25351;SDS011;13304;48.464;8.712;2023-07-20T02:24:50;4.15;;;2.55;;
25351;SDS011;13304;48.464;8.712;2023-07-20T02:27:16;4.45;;;2.78;;
25351;SDS011;13304;48.464;8.712;2023-07-20T02:29:44;6.03;;;2.30;;
25351;SDS011;13304;48.464;8.712;2023-07-20T02:32:10;4.70;;;2.80;;
25351;SDS011;13304;48.464;8.712;2023-07-20T02:34:36;3.58;;;2.88;;
25351;SDS011;13304;48.464;8.712;2023-07-20T02:37:01;6.50;;;2.75;;
25351;SDS011;13304;48.464;8.712;2023-07-20T02:39:27;3.20;;;2.50;;
25351;SDS011;13304;48.464;8.712;2023-07-20T02:41:53;4.95;;;2.70;;
25351;SDS011;13304;48.464;8.712;2023-07-20T02:44:19;6.10;;;2.80;;
25351;SDS011;13304;48.464;8.712;2023-07-20T02:46:48;8.73;;;3.30;;
25351;SDS011;13304;48.464;8.712;2023-07-20T02:49:14;3.35;;;2.30;;
25351;SDS011;13304;48.464;8.712;2023-07-20T02:51:42;6.37;;;2.73;;
25351;SDS011;13304;48.464;8.712;2023-07-20T02:54:08;4.55;;;2.67;;
25351;SDS011;13304;48.464;8.712;2023-07-20T02:56:39;6.22;;;2.80;;
25351;SDS011;13304;48.464;8.712;2023-07-20T02:59:05;6.57;;;2.45;;
25351;SDS011;13304;48.464;8.712;2023-07-20T03:01:31;4.40;;;2.75;;
25351;SDS011;13304;48.464;8.712;2023-07-20T03:03:57;4.50;;;2.75;;
25351;SDS011;13304;48.464;8.712;2023-07-20T03:06:22;5.43;;;2.60;;
25351;SDS011;13304;48.464;8.712;2023-07-20T03:08:48;7.45;;;2.38;;
25351;SDS011;13304;48.464;8.712;2023-07-20T03:11:19;5.22;;;2.65;;
25351;SDS011;13304;48.464;8.712;2023-07-20T03:13:48;3.30;;;2.60;;
25351;SDS011;13304;48.464;8.712;2023-07-20T03:16:17;6.95;;;2.30;;
25351;SDS011;13304;48.464;8.712;2023-07-20T03:18:46;5.40;;;2.83;;
25351;SDS011;13304;48.464;8.712;2023-07-20T03:21:14;4.43;;;2.80;;
25351;SDS011;13304;48.464;8.712;2023-07-20T03:23:40;4.28;;;2.80;;
25351;SDS011;13304;48.464;8.712;2023-07-20T03:26:06;7.35;;;2.75;;
25351;SDS011;13304;48.464;8.712;2023-07-20T03:28:35;3.97;;;2.55;;
25351;SDS011;13304;48.464;8.712;2023-07-20T03:31:01;6.40;;;2.78;;
25351;SDS011;13304;48.464;8.712;2023-07-20T03:33:28;6.38;;;3.00;;
25351;SDS011;13304;48.464;8.712;2023-07-20T03:35:55;12.40;;;2.92;;
25351;SDS011;13304;48.464;8.712;2023-07-20T03:38:23;6.43;;;2.90;;
25351;SDS011;13304;48.464;8.712;2023-07-20T03:40:59;5.75;;;2.85;;
25351;SDS011;13304;48.464;8.712;2023-07-20T03:43:28;4.25;;;2.60;;
25351;SDS011;13304;48.464;8.712;2023-07-20T03:45:59;8.20;;;3.15;;
25351;SDS011;13304;48.464;8.712;2023-07-20T03:48:26;4.30;;;2.80;;
25351;SDS011;13304;48.464;8.712;2023-07-20T03:50:55;5.22;;;2.45;;
25351;SDS011;13304;48.464;8.712;2023-07-20T03:53:21;5.07;;;2.42;;
25351;SDS011;13304;48.464;8.712;2023-07-20T03:55:55;3.22;;;2.50;;
25351;SDS011;13304;48.464;8.712;2023-07-20T03:58:50;5.07;;;2.95;;
25351;SDS011;13304;48.464;8.712;2023-07-20T04:01:16;6.85;;;2.70;;
25351;SDS011;13304;48.464;8.712;2023-07-20T04:03:42;6.38;;;2.70;;
25351;SDS011;13304;48.464;8.712;2023-07-20T04:06:08;5.32;;;2.88;;
25351;SDS011;13304;48.464;8.712;2023-07-20T04:08:37;6.15;;;3.00;;
25351;SDS011;13304;48.464;8.712;2023-07-20T04:11:03;4.90;;;2.83;;
25351;SDS011;13304;48.464;8.712;2023-07-20T04:13:28;7.20;;;3.25;;
25351;SDS011;13304;48.464;8.712;2023-07-20T04:15:58;6.28;;;2.75;;
25351;SDS011;13304;48.464;8.712;2023-07-20T04:18:24;5.93;;;2.80;;
25351;SDS011;13304;48.464;8.712;2023-07-20T04:20:49;9.05;;;2.78;;
25351;SDS011;13304;48.464;8.712;2023-07-20T04:23:15;5.47;;;2.53;;
25351;SDS011;13304;48.464;8.712;2023-07-20T04:25:41;5.80;;;2.60;;
25351;SDS011;13304;48.464;8.712;2023-07-20T04:28:07;6.28;;;2.88;;
25351;SDS011;13304;48.464;8.712;2023-07-20T04:30:34;5.65;;;2.95;;
25351;SDS011;13304;48.464;8.712;2023-07-20T04:33:01;6.30;;;2.85;;
25351;SDS011;13304;48.464;8.712;2023-07-20T04:38:15;4.07;;;2.78;;
25351;SDS011;13304;48.464;8.712;2023-07-20T04:40:42;5.95;;;2.72;;
25351;SDS011;13304;48.464;8.712;2023-07-20T04:43:12;4.07;;;2.85;;
25351;SDS011;13304;48.464;8.712;2023-07-20T04:45:38;5.13;;;3.00;;
25351;SDS011;13304;48.464;8.712;2023-07-20T04:48:06;5.65;;;2.80;;
25351;SDS011;13304;48.464;8.712;2023-07-20T04:50:34;11.80;;;3.20;;
25351;SDS011;13304;48.464;8.712;2023-07-20T04:53:00;5.32;;;3.28;;
25351;SDS011;13304;48.464;8.712;2023-07-20T04:55:27;8.95;;;3.63;;
25351;SDS011;13304;48.464;8.712;2023-07-20T04:57:53;6.07;;;3.30;;
25351;SDS011;13304;48.464;8.712;2023-07-20T05:00:18;5.43;;;3.50;;
25351;SDS011;13304;48.464;8.712;2023-07-20T05:02:45;5.22;;;3.50;;
25351;SDS011;13304;48.464;8.712;2023-07-20T05:05:12;6.50;;;3.33;;
25351;SDS011;13304;48.464;8.712;2023-07-20T05:07:38;5.70;;;3.40;;
25351;SDS011;13304;48.464;8.712;2023-07-20T05:10:04;5.90;;;3.70;;
25351;SDS011;13304;48.464;8.712;2023-07-20T05:12:30;5.75;;;3.60;;
25351;SDS011;13304;48.464;8.712;2023-07-20T05:14:56;6.65;;;3.50;;
25351;SDS011;13304;48.464;8.712;2023-07-20T05:17:21;5.90;;;3.78;;
25351;SDS011;13304;48.464;8.712;2023-07-20T05:19:47;9.02;;;3.70;;
25351;SDS011;13304;48.464;8.712;2023-07-20T05:22:13;6.07;;;3.40;;
25351;SDS011;13304;48.464;8.712;2023-07-20T05:24:39;7.10;;;3.78;;
25351;SDS011;13304;48.464;8.712;2023-07-20T05:27:05;9.05;;;3.80;;
25351;SDS011;13304;48.464;8.712;2023-07-20T05:29:31;7.32;;;3.42;;
25351;SDS011;13304;48.464;8.712;2023-07-20T05:31:58;5.95;;;3.22;;
25351;SDS011;13304;48.464;8.712;2023-07-20T05:34:23;6.13;;;3.50;;
25351;SDS011;13304;48.464;8.712;2023-07-20T05:36:49;8.98;;;3.30;;
25351;SDS011;13304;48.464;8.712;2023-07-20T05:39:16;7.43;;;3.25;;
25351;SDS011;13304;48.464;8.712;2023-07-20T05:41:42;5.70;;;3.30;;
25351;SDS011;13304;48.464;8.712;2023-07-20T05:44:08;4.63;;;3.17;;
25351;SDS011;13304;48.464;8.712;2023-07-20T05:46:34;13.70;;;4.05;;
25351;SDS011;13304;48.464;8.712;2023-07-20T05:49:00;11.35;;;3.67;;
25351;SDS011;13304;48.464;8.712;2023-07-20T05:51:26;7.30;;;3.40;;
25351;SDS011;13304;48.464;8.712;2023-07-20T05:53:52;10.70;;;3.35;;
25351;SDS011;13304;48.464;8.712;2023-07-20T05:56:20;5.35;;;3.40;;
25351;SDS011;13304;48.464;8.712;2023-07-20T05:58:46;6.70;;;3.53;;
25351;SDS011;13304;48.464;8.712;2023-07-20T06:01:11;7.10;;;3.47;;
25351;SDS011;13304;48.464;8.712;2023-07-20T06:03:37;12.60;;;2.90;;
25351;SDS011;13304;48.464;8.712;2023-07-20T06:06:03;12.05;;;3.05;;
25351;SDS011;13304;48.464;8.712;2023-07-20T06:08:34;13.27;;;2.88;;
25351;SDS011;13304;48.464;8.712;2023-07-20T06:10:59;6.95;;;2.78;;
25351;SDS011;13304;48.464;8.712;2023-07-20T06:13:25;8.23;;;2.75;;
25351;SDS011;13304;48.464;8.712;2023-07-20T06:15:51;6.30;;;3.22;;
25351;SDS011;13304;48.464;8.712;2023-07-20T06:18:17;3.85;;;2.45;;
25351;SDS011;13304;48.464;8.712;2023-07-20T06:20:48;7.22;;;2.97;;
25351;SDS011;13304;48.464;8.712;2023-07-20T06:23:19;5.65;;;2.40;;
25351;SDS011;13304;48.464;8.712;2023-07-20T06:25:45;8.57;;;2.42;;
25351;SDS011;13304;48.464;8.712;2023-07-20T06:28:11;8.85;;;2.72;;
25351;SDS011;13304;48.464;8.712;2023-07-20T06:30:37;8.45;;;2.20;;
25351;SDS011;13304;48.464;8.712;2023-07-20T06:33:03;4.65;;;2.30;;
25351;SDS011;13304;48.464;8.712;2023-07-20T06:35:29;6.78;;;2.35;;
25351;SDS011;13304;48.464;8.712;2023-07-20T06:37:55;5.25;;;2.50;;
25351;SDS011;13304;48.464;8.712;2023-07-20T06:40:20;4.85;;;2.28;;
25351;SDS011;13304;48.464;8.712;2023-07-20T06:42:46;7.97;;;2.40;;
25351;SDS011;13304;48.464;8.712;2023-07-20T06:45:12;6.45;;;2.50;;
25351;SDS011;13304;48.464;8.712;2023-07-20T06:47:38;5.93;;;2.83;;
25351;SDS011;13304;48.464;8.712;2023-07-20T06:50:05;4.05;;;2.33;;
25351;SDS011;13304;48.464;8.712;2023-07-20T06:52:32;4.93;;;2.40;;
25351;SDS011;13304;48.464;8.712;2023-07-20T06:54:58;6.00;;;2.70;;
25351;SDS011;13304;48.464;8.712;2023-07-20T06:57:24;4.95;;;2.45;;
25351;SDS011;13304;48.464;8.712;2023-07-20T06:59:50;8.80;;;2.70;;
25351;SDS011;13304;48.464;8.712;2023-07-20T07:02:16;5.78;;;2.22;;
25351;SDS011;13304;48.464;8.712;2023-07-20T07:04:42;3.45;;;2.22;;
25351;SDS011;13304;48.464;8.712;2023-07-20T07:07:14;5.45;;;2.33;;
25351;SDS011;13304;48.464;8.712;2023-07-20T07:09:40;3.85;;;2.40;;
25351;SDS011;13304;48.464;8.712;2023-07-20T07:12:07;6.93;;;2.83;;
25351;SDS011;13304;48.464;8.712;2023-07-20T07:14:33;9.95;;;2.65;;
25351;SDS011;13304;48.464;8.712;2023-07-20T07:16:59;8.77;;;2.50;;
25351;SDS011;13304;48.464;8.712;2023-07-20T07:19:25;6.22;;;2.80;;
25351;SDS011;13304;48.464;8.712;2023-07-20T07:21:51;8.25;;;2.63;;
25351;SDS011;13304;48.464;8.712;2023-07-20T07:24:17;5.78;;;2.70;;
25351;SDS011;13304;48.464;8.712;2023-07-20T07:26:42;5.20;;;2.13;;
25351;SDS011;13304;48.464;8.712;2023-07-20T07:29:08;6.07;;;2.40;;
25351;SDS011;13304;48.464;8.712;2023-07-20T07:31:34;5.60;;;2.65;;
25351;SDS011;13304;48.464;8.712;2023-07-20T07:34:01;5.82;;;2.55;;
25351;SDS011;13304;48.464;8.712;2023-07-20T07:36:27;3.78;;;2.30;;
25351;SDS011;13304;48.464;8.712;2023-07-20T07:38:56;5.00;;;2.13;;
25351;SDS011;13304;48.464;8.712;2023-07-20T07:41:22;3.25;;;2.35;;
25351;SDS011;13304;48.464;8.712;2023-07-20T07:43:48;3.85;;;2.20;;
25351;SDS011;13304;48.464;8.712;2023-07-20T07:46:14;4.45;;;2.38;;
25351;SDS011;13304;48.464;8.712;2023-07-20T07:48:39;7.18;;;2.08;;
25351;SDS011;13304;48.464;8.712;2023-07-20T07:51:05;13.40;;;2.38;;
25351;SDS011;13304;48.464;8.712;2023-07-20T07:53:31;8.02;;;2.28;;
25351;SDS011;13304;48.464;8.712;2023-07-20T07:55:57;5.05;;;2.13;;
25351;SDS011;13304;48.464;8.712;2023-07-20T07:58:23;4.30;;;2.17;;
25351;SDS011;13304;48.464;8.712;2023-07-20T08:00:49;6.80;;;2.58;;
25351;SDS011;13304;48.464;8.712;2023-07-20T08:03:15;5.40;;;2.40;;
25351;SDS011;13304;48.464;8.712;2023-07-20T08:05:40;6.30;;;2.15;;
25351;SDS011;13304;48.464;8.712;2023-07-20T08:08:06;4.68;;;1.92;;
25351;SDS011;13304;48.464;8.712;2023-07-20T08:10:33;7.90;;;2.30;;
25351;SDS011;13304;48.464;8.712;2023-07-20T08:12:59;4.70;;;2.10;;
25351;SDS011;13304;48.464;8.712;2023-07-20T08:15:25;4.22;;;2.20;;
25351;SDS011;13304;48.464;8.712;2023-07-20T08:17:50;5.07;;;2.40;;
25351;SDS011;13304;48.464;8.712;2023-07-20T08:20:17;2.92;;;1.83;;
25351;SDS011;13304;48.464;8.712;2023-07-20T08:22:43;3.30;;;2.03;;
25351;SDS011;13304;48.464;8.712;2023-07-20T08:25:09;3.42;;;1.85;;
25351;SDS011;13304;48.464;8.712;2023-07-20T08:27:35;4.40;;;1.88;;
25351;SDS011;13304;48.464;8.712;2023-07-20T08:30:03;4.05;;;2.05;;
25351;SDS011;13304;48.464;8.712;2023-07-20T08:32:29;2.88;;;1.98;;
25351;SDS011;13304;48.464;8.712;2023-07-20T08:34:55;4.88;;;2.00;;
25351;SDS011;13304;48.464;8.712;2023-07-20T08:37:21;3.58;;;2.03;;
25351;SDS011;13304;48.464;8.712;2023-07-20T08:39:47;4.28;;;1.98;;
25351;SDS011;13304;48.464;8.712;2023-07-20T08:42:13;3.70;;;1.80;;
25351;SDS011;13304;48.464;8.712;2023-07-20T08:44:41;5.18;;;1.83;;
25351;SDS011;13304;48.464;8.712;2023-07-20T08:47:09;10.52;;;2.25;;
25351;SDS011;13304;48.464;8.712;2023-07-20T08:49:37;3.22;;;1.67;;
25351;SDS011;13304;48.464;8.712;2023-07-20T08:52:05;4.80;;;1.90;;
25351;SDS011;13304;48.464;8.712;2023-07-20T08:54:31;5.18;;;1.83;;
25351;SDS011;13304;48.464;8.712;2023-07-20T08:57:04;2.95;;;1.70;;
25351;SDS011;13304;48.464;8.712;2023-07-20T08:59:30;3.78;;;1.83;;
25351;SDS011;13304;48.464;8.712;2023-07-20T09:01:58;3.42;;;1.77;;
25351;SDS011;13304;48.464;8.712;2023-07-20T09:04:24;4.93;;;1.92;;
25351;SDS011;13304;48.464;8.712;2023-07-20T09:06:50;3.05;;;1.88;;
25351;SDS011;13304;48.464;8.712;2023-07-20T09:09:17;5.80;;;1.60;;
25351;SDS011;13304;48.464;8.712;2023-07-20T09:11:43;3.90;;;1.70;;
25351;SDS011;13304;48.464;8.712;2023-07-20T09:14:13;4.03;;;1.80;;
25351;SDS011;13304;48.464;8.712;2023-07-20T09:16:52;5.63;;;1.90;;
25351;SDS011;13304;48.464;8.712;2023-07-20T09:19:19;3.80;;;1.70;;
25351;SDS011;13304;48.464;8.712;2023-07-20T09:21:49;3.17;;;1.77;;
25351;SDS011;13304;48.464;8.712;2023-07-20T09:24:17;5.50;;;1.60;;
25351;SDS011;13304;48.464;8.712;2023-07-20T09:26:44;3.75;;;2.00;;
25351;SDS011;13304;48.464;8.712;2023-07-20T09:29:11;3.88;;;2.08;;
25351;SDS011;13304;48.464;8.712;2023-07-20T09:31:37;11.15;;;2.13;;
25351;SDS011;13304;48.464;8.712;2023-07-20T09:34:04;4.18;;;1.92;;
25351;SDS011;13304;48.464;8.712;2023-07-20T09:36:33;5.15;;;1.63;;
25351;SDS011;13304;48.464;8.712;2023-07-20T09:39:00;4.68;;;1.90;;
25351;SDS011;13304;48.464;8.712;2023-07-20T09:41:27;2.95;;;1.60;;
25351;SDS011;13304;48.464;8.712;2023-07-20T09:43:53;5.00;;;1.75;;
25351;SDS011;13304;48.464;8.712;2023-07-20T09:46:19;5.90;;;1.80;;
25351;SDS011;13304;48.464;8.712;2023-07-20T09:48:52;4.25;;;1.70;;
25351;SDS011;13304;48.464;8.712;2023-07-20T09:51:20;7.70;;;1.83;;
25351;SDS011;13304;48.464;8.712;2023-07-20T09:53:48;5.22;;;1.75;;
25351;SDS011;13304;48.464;8.712;2023-07-20T09:56:15;4.40;;;1.83;;
25351;SDS011;13304;48.464;8.712;2023-07-20T09:58:43;2.43;;;1.70;;
25351;SDS011;13304;48.464;8.712;2023-07-20T10:01:10;3.25;;;1.70;;
25351;SDS011;13304;48.464;8.712;2023-07-20T10:03:39;2.65;;;1.63;;
25351;SDS011;13304;48.464;8.712;2023-07-20T10:06:09;3.50;;;1.98;;
25351;SDS011;13304;48.464;8.712;2023-07-20T10:08:41;5.57;;;1.88;;
25351;SDS011;13304;48.464;8.712;2023-07-20T10:11:08;3.88;;;1.88;;
25351;SDS011;13304;48.464;8.712;2023-07-20T10:13:37;4.55;;;1.80;;
25351;SDS011;13304;48.464;8.712;2023-07-20T10:16:07;5.53;;;1.83;;
25351;SDS011;13304;48.464;8.712;2023-07-20T10:21:20;4.35;;;1.52;;
25351;SDS011;13304;48.464;8.712;2023-07-20T10:26:15;2.70;;;1.80;;
25351;SDS011;13304;48.464;8.712;2023-07-20T10:28:41;4.70;;;1.77;;
25351;SDS011;13304;48.464;8.712;2023-07-20T10:31:10;7.15;;;1.92;;
25351;SDS011;13304;48.464;8.712;2023-07-20T10:33:38;3.50;;;1.90;;
25351;SDS011;13304;48.464;8.712;2023-07-20T10:36:05;6.00;;;1.70;;
25351;SDS011;13304;48.464;8.712;2023-07-20T10:41:19;3.15;;;1.88;;
25351;SDS011;13304;48.464;8.712;2023-07-20T10:43:49;2.83;;;1.65;;
25351;SDS011;13304;48.464;8.712;2023-07-20T10:46:33;3.30;;;1.60;;
25351;SDS011;13304;48.464;8.712;2023-07-20T10:51:41;2.50;;;1.80;;
25351;SDS011;13304;48.464;8.712;2023-07-20T10:56:49;3.13;;;1.67;;
25351;SDS011;13304;48.464;8.712;2023-07-20T11:02:08;4.60;;;1.67;;
25351;SDS011;13304;48.464;8.712;2023-07-20T11:04:38;1.50;;;1.25;;
25351;SDS011;13304;48.464;8.712;2023-07-20T11:07:15;3.90;;;1.60;;
25351;SDS011;13304;48.464;8.712;2023-07-20T11:10:14;6.43;;;1.70;;
25351;SDS011;13304;48.464;8.712;2023-07-20T11:12:40;2.07;;;1.40;;
25351;SDS011;13304;48.464;8.712;2023-07-20T11:15:06;4.50;;;1.70;;
25351;SDS011;13304;48.464;8.712;2023-07-20T11:17:32;4.45;;;1.80;;
25351;SDS011;13304;48.464;8.712;2023-07-20T11:19:59;4.53;;;1.60;;
25351;SDS011;13304;48.464;8.712;2023-07-20T11:22:26;4.68;;;1.95;;
25351;SDS011;13304;48.464;8.712;2023-07-20T11:24:56;3.88;;;1.60;;
25351;SDS011;13304;48.464;8.712;2023-07-20T11:27:22;2.92;;;1.70;;
25351;SDS011;13304;48.464;8.712;2023-07-20T11:29:48;3.40;;;1.55;;
25351;SDS011;13304;48.464;8.712;2023-07-20T11:32:22;2.55;;;1.70;;
25351;SDS011;13304;48.464;8.712;2023-07-20T11:34:48;5.13;;;1.63;;
25351;SDS011;13304;48.464;8.712;2023-07-20T11:37:18;6.15;;;1.77;;
25351;SDS011;13304;48.464;8.712;2023-07-20T11:39:44;2.38;;;1.42;;
25351;SDS011;13304;48.464;8.712;2023-07-20T11:42:10;2.70;;;1.67;;
25351;SDS011;13304;48.464;8.712;2023-07-20T11:44:37;3.00;;;1.63;;
25351;SDS011;13304;48.464;8.712;2023-07-20T11:49:36;2.97;;;1.60;;
25351;SDS011;13304;48.464;8.712;2023-07-20T11:52:03;3.13;;;1.65;;
25351;SDS011;13304;48.464;8.712;2023-07-20T11:54:31;3.33;;;1.77;;
25351;SDS011;13304;48.464;8.712;2023-07-20T11:57:01;2.95;;;1.60;;
25351;SDS011;13304;48.464;8.712;2023-07-20T11:59:32;2.75;;;1.77;;
25351;SDS011;13304;48.464;8.712;2023-07-20T12:02:00;3.22;;;1.70;;
25351;SDS011;13304;48.464;8.712;2023-07-20T12:04:28;5.60;;;1.80;;
25351;SDS011;13304;48.464;8.712;2023-07-20T12:06:56;4.35;;;2.00;;
25351;SDS011;13304;48.464;8.712;2023-07-20T12:09:22;4.85;;;1.67;;
25351;SDS011;13304;48.464;8.712;2023-07-20T12:11:49;2.10;;;1.50;;
25351;SDS011;13304;48.464;8.712;2023-07-20T12:14:15;1.90;;;1.50;;
25351;SDS011;13304;48.464;8.712;2023-07-20T12:16:41;2.90;;;1.48;;
25351;SDS011;13304;48.464;8.712;2023-07-20T12:19:08;2.10;;;1.42;;
25351;SDS011;13304;48.464;8.712;2023-07-20T12:21:39;1.98;;;1.42;;
25351;SDS011;13304;48.464;8.712;2023-07-20T12:24:10;2.90;;;1.80;;
25351;SDS011;13304;48.464;8.712;2023-07-20T12:29:01;2.42;;;1.40;;
25351;SDS011;13304;48.464;8.712;2023-07-20T12:31:36;2.28;;;1.55;;
25351;SDS011;13304;48.464;8.712;2023-07-20T12:34:01;2.88;;;1.60;;
25351;SDS011;13304;48.464;8.712;2023-07-20T12:36:27;2.92;;;1.60;;
25351;SDS011;13304;48.464;8.712;2023-07-20T12:38:53;5.75;;;1.75;;
25351;SDS011;13304;48.464;8.712;2023-07-20T12:41:19;4.97;;;1.77;;
25351;SDS011;13304;48.464;8.712;2023-07-20T12:43:45;3.10;;;1.50;;
25351;SDS011;13304;48.464;8.712;2023-07-20T12:46:11;2.45;;;1.50;;
25351;SDS011;13304;48.464;8.712;2023-07-20T12:48:38;1.90;;;1.55;;
25351;SDS011;13304;48.464;8.712;2023-07-20T12:51:06;2.90;;;1.60;;
25351;SDS011;13304;48.464;8.712;2023-07-20T12:53:33;4.22;;;1.55;;
25351;SDS011;13304;48.464;8.712;2023-07-20T12:55:59;3.05;;;1.65;;
25351;SDS011;13304;48.464;8.712;2023-07-20T12:58:27;2.60;;;1.75;;
25351;SDS011;13304;48.464;8.712;2023-07-20T13:00:53;2.63;;;1.65;;
25351;SDS011;13304;48.464;8.712;2023-07-20T13:03:19;2.50;;;1.75;;
25351;SDS011;13304;48.464;8.712;2023-07-20T13:05:46;3.42;;;1.70;;
25351;SDS011;13304;48.464;8.712;2023-07-20T13:08:12;19.15;;;1.98;;
25351;SDS011;13304;48.464;8.712;2023-07-20T13:10:38;3.38;;;1.77;;
25351;SDS011;13304;48.464;8.712;2023-07-20T13:13:04;4.72;;;2.13;;
25351;SDS011;13304;48.464;8.712;2023-07-20T13:15:31;4.85;;;1.85;;
25351;SDS011;13304;48.464;8.712;2023-07-20T13:17:58;3.60;;;1.65;;
25351;SDS011;13304;48.464;8.712;2023-07-20T13:20:25;4.20;;;1.55;;
25351;SDS011;13304;48.464;8.712;2023-07-20T13:22:53;3.15;;;1.80;;
25351;SDS011;13304;48.464;8.712;2023-07-20T13:25:19;2.05;;;1.60;;
25351;SDS011;13304;48.464;8.712;2023-07-20T13:27:45;3.33;;;1.88;;
25351;SDS011;13304;48.464;8.712;2023-07-20T13:30:11;5.78;;;2.22;;
25351;SDS011;13304;48.464;8.712;2023-07-20T13:32:41;7.15;;;1.80;;
25351;SDS011;13304;48.464;8.712;2023-07-20T13:35:08;6.63;;;1.85;;
25351;SDS011;13304;48.464;8.712;2023-07-20T13:37:34;3.25;;;1.77;;
25351;SDS011;13304;48.464;8.712;2023-07-20T13:40:00;3.10;;;1.70;;
25351;SDS011;13304;48.464;8.712;2023-07-20T13:42:26;3.78;;;1.63;;
25351;SDS011;13304;48.464;8.712;2023-07-20T13:44:52;4.22;;;1.63;;
25351;SDS011;13304;48.464;8.712;2023-07-20T13:47:17;5.60;;;2.00;;
25351;SDS011;13304;48.464;8.712;2023-07-20T13:49:43;4.57;;;2.00;;
25351;SDS011;13304;48.464;8.712;2023-07-20T13:52:09;3.63;;;1.80;;
25351;SDS011;13304;48.464;8.712;2023-07-20T13:54:35;4.25;;;1.70;;
25351;SDS011;13304;48.464;8.712;2023-07-20T13:57:01;8.13;;;1.92;;
25351;SDS011;13304;48.464;8.712;2023-07-20T13:59:27;4.75;;;1.90;;
25351;SDS011;13304;48.464;8.712;2023-07-20T14:01:53;4.03;;;1.77;;
25351;SDS011;13304;48.464;8.712;2023-07-20T14:04:19;3.05;;;1.50;;
25351;SDS011;13304;48.464;8.712;2023-07-20T14:06:47;5.82;;;1.75;;
25351;SDS011;13304;48.464;8.712;2023-07-20T14:09:12;1.70;;;1.60;;
25351;SDS011;13304;48.464;8.712;2023-07-20T14:11:38;2.72;;;1.50;;
25351;SDS011;13304;48.464;8.712;2023-07-20T14:14:04;3.47;;;1.95;;
25351;SDS011;13304;48.464;8.712;2023-07-20T14:16:29;4.60;;;1.60;;
25351;SDS011;13304;48.464;8.712;2023-07-20T14:18:57;3.75;;;1.70;;
25351;SDS011;13304;48.464;8.712;2023-07-20T14:21:23;3.05;;;1.65;;
25351;SDS011;13304;48.464;8.712;2023-07-20T14:24:05;5.05;;;1.98;;
25351;SDS011;13304;48.464;8.712;2023-07-20T14:26:30;3.00;;;1.60;;
25351;SDS011;13304;48.464;8.712;2023-07-20T14:28:57;8.50;;;1.77;;
25351;SDS011;13304;48.464;8.712;2023-07-20T14:31:23;3.20;;;1.65;;
25351;SDS011;13304;48.464;8.712;2023-07-20T14:33:50;4.07;;;1.80;;
25351;SDS011;13304;48.464;8.712;2023-07-20T14:36:16;6.85;;;2.22;;
25351;SDS011;13304;48.464;8.712;2023-07-20T14:38:42;10.43;;;2.00;;
25351;SDS011;13304;48.464;8.712;2023-07-20T14:41:08;2.90;;;1.83;;
25351;SDS011;13304;48.464;8.712;2023-07-20T14:43:33;5.43;;;2.22;;
25351;SDS011;13304;48.464;8.712;2023-07-20T14:45:59;2.47;;;1.63;;
25351;SDS011;13304;48.464;8.712;2023-07-20T14:48:25;5.15;;;2.10;;
25351;SDS011;13304;48.464;8.712;2023-07-20T14:50:51;3.78;;;1.90;;
25351;SDS011;13304;48.464;8.712;2023-07-20T14:53:16;2.75;;;1.60;;
25351;SDS011;13304;48.464;8.712;2023-07-20T14:55:42;9.40;;;1.55;;
25351;SDS011;13304;48.464;8.712;2023-07-20T14:58:09;4.28;;;2.00;;
25351;SDS011;13304;48.464;8.712;2023-07-20T15:00:35;4.55;;;1.70;;
25351;SDS011;13304;48.464;8.712;2023-07-20T15:03:01;2.80;;;1.48;;
25351;SDS011;13304;48.464;8.712;2023-07-20T15:05:27;3.00;;;1.80;;
25351;SDS011;13304;48.464;8.712;2023-07-20T15:07:53;8.52;;;1.92;;
25351;SDS011;13304;48.464;8.712;2023-07-20T15:10:19;14.18;;;3.00;;
25351;SDS011;13304;48.464;8.712;2023-07-20T15:12:45;4.55;;;2.00;;
25351;SDS011;13304;48.464;8.712;2023-07-20T15:15:12;5.20;;;2.00;;
25351;SDS011;13304;48.464;8.712;2023-07-20T15:17:39;5.38;;;2.40;;
25351;SDS011;13304;48.464;8.712;2023-07-20T15:20:06;2.70;;;1.60;;
25351;SDS011;13304;48.464;8.712;2023-07-20T15:22:33;10.60;;;2.90;;